Ampthill, Virginia
Current Conditions -  °F | °C
As of 3:55 AM on Sunday 23 Nov 2014 (Local Time) from KFCI Reporting Station
Clear Clear  
Wind Chill: -1°   Ceiling: Unl
Heat Index: -1°   Visibility: 10mi
Dew Point: -10°   Wind: 0mph
Humidity: 51%   Direction: NA
Pressure: 30.27"   Gusts: NA
Location:  37.4513°N, 77.4708°W
Report Text: KFCI 230855Z AUTO 00000KT 10SM CLR M01/M10 A3027 RMK AO1 57010
Loading
Personal Weather Stations






























Interactive Weather Map New forecast layout! Learn more

10-Day Weather Forecast

Advertisements
Track Severe Weather on mobile